Time;durP1;ratioP1;P1;durP2;ratioP2;P2;SDS_P1;SDS_P2;PMS_P1;PMS_P2;Temp;Humidity;BMP_temperature;BMP_pressure;BME280_temperature;BME280_humidity;BME280_pressure;Samples;Min_cycle;Max_cycle;Signal;HPM_P1;HPM_P2
2022/11/10 00:00:14;;;;;;;6.88;2.20;;;;;;;9.42;100.00;100970.56;687323;28;1202;-68
2022/11/10 00:00:53;;;;;;;8.02;2.25;;;;;;;9.42;100.00;100973.19;687077;28;4395;-68
2022/11/10 00:01:32;;;;;;;7.30;2.20;;;;;;;9.32;100.00;100974.00;690085;28;1139;-68
2022/11/10 00:02:11;;;;;;;7.25;2.45;;;;;;;9.38;100.00;100974.03;689995;28;1069;-68
2022/11/10 00:02:50;;;;;;;8.48;2.15;;;;;;;9.30;100.00;100971.38;687046;28;1993;-68
2022/11/10 00:03:29;;;;;;;8.43;2.35;;;;;;;9.32;100.00;100974.00;687366;28;1143;-68
2022/11/10 00:04:08;;;;;;;8.30;2.47;;;;;;;9.35;100.00;100979.22;686934;28;5068;-68
2022/11/10 00:04:47;;;;;;;7.70;2.28;;;;;;;9.33;100.00;100983.56;687376;28;1046;-68
2022/11/10 00:05:26;;;;;;;6.45;2.00;;;;;;;9.47;100.00;100979.31;684797;28;2158;-68
2022/11/10 00:06:07;;;;;;;6.60;2.08;;;;;;;9.53;100.00;100984.53;687395;28;1200;-68
2022/11/10 00:06:46;;;;;;;6.68;2.10;;;;;;;9.51;100.00;100986.28;686496;28;5294;-68
2022/11/10 00:07:26;;;;;;;6.38;2.10;;;;;;;9.46;100.00;100989.72;687391;28;1109;-68
2022/11/10 00:08:08;;;;;;;6.88;2.00;;;;;;;9.44;100.00;100988.84;687672;28;1200;-68
2022/11/10 00:08:47;;;;;;;8.90;2.70;;;;;;;9.38;100.00;100989.69;687792;28;1199;-68
2022/11/10 00:09:26;;;;;;;6.57;2.20;;;;;;;9.34;100.00;100985.31;687355;28;1045;-67
2022/11/10 00:10:06;;;;;;;6.88;2.30;;;;;;;9.47;100.00;100986.22;687033;28;5195;-68
2022/11/10 00:11:06;;;;;;;6.65;2.30;;;;;;;9.48;100.00;100986.25;687341;28;1227;-68
2022/11/10 00:11:45;;;;;;;8.80;2.40;;;;;;;9.48;100.00;100991.47;687685;28;1246;-69
2022/11/10 00:12:23;;;;;;;7.05;2.05;;;;;;;9.55;100.00;100992.38;687512;28;1143;-68
2022/11/10 00:13:02;;;;;;;8.25;2.20;;;;;;;9.52;100.00;100993.22;686704;28;4967;-68
2022/11/10 00:17:36;;;;;;;9.05;2.15;;;;;;;9.39;100.00;101004.47;687232;28;1131;-67
2022/11/10 00:18:15;;;;;;;5.53;2.30;;;;;;;9.61;100.00;101001.97;687111;28;1049;-68
2022/11/10 00:18:54;;;;;;;7.65;2.20;;;;;;;9.57;100.00;101003.69;689183;28;4526;-68
2022/11/10 00:19:33;;;;;;;5.85;2.08;;;;;;;9.61;100.00;101004.56;689813;28;1162;-69
2022/11/10 00:20:12;;;;;;;7.22;2.30;;;;;;;9.59;100.00;101008.94;689411;28;1104;-68
2022/11/10 00:20:51;;;;;;;8.75;2.42;;;;;;;9.56;100.00;101003.69;687509;28;1120;-68
2022/11/10 00:21:30;;;;;;;8.30;2.30;;;;;;;9.49;100.00;101006.25;687238;28;1063;-69
2022/11/10 00:22:09;;;;;;;8.15;2.22;;;;;;;9.45;100.00;101007.09;686688;28;5016;-68
2022/11/10 00:22:48;;;;;;;8.32;2.30;;;;;;;9.39;100.00;101012.31;687807;28;1911;-68
2022/11/10 00:23:27;;;;;;;9.15;2.40;;;;;;;9.38;100.00;101010.56;687309;28;1144;-68
2022/11/10 00:24:06;;;;;;;7.45;2.70;;;;;;;9.49;100.00;101011.47;688110;28;1103;-69
2022/11/10 00:24:45;;;;;;;7.82;2.45;;;;;;;9.51;100.00;101007.16;686922;28;4558;-69
2022/11/10 00:25:26;;;;;;;9.05;3.00;;;;;;;9.48;100.00;101007.13;687080;28;1080;-69
2022/11/10 00:26:11;;;;;;;9.80;3.22;;;;;;;9.40;100.00;101003.63;687374;28;1061;-68
2022/11/10 00:26:51;;;;;;;8.77;2.42;;;;;;;9.38;100.00;101008.81;687848;28;1188;-69
2022/11/10 00:27:33;;;;;;;8.45;2.30;;;;;;;9.40;100.00;101007.94;687322;28;1135;-68
2022/11/10 00:28:12;;;;;;;9.00;2.85;;;;;;;9.38;100.00;101010.56;686388;28;5166;-69
2022/11/10 00:28:51;;;;;;;8.98;2.75;;;;;;;9.34;100.00;101003.56;687497;28;1164;-68
2022/11/10 00:29:30;;;;;;;9.02;2.80;;;;;;;9.58;100.00;101017.63;687732;28;1080;-67
2022/11/10 00:30:09;;;;;;;9.40;2.25;;;;;;;9.67;100.00;101002.00;687339;28;1222;-68
2022/11/10 00:30:49;;;;;;;9.05;2.25;;;;;;;9.63;100.00;101002.84;687310;28;4739;-68
2022/11/10 00:31:28;;;;;;;9.07;2.60;;;;;;;9.59;100.00;101008.94;690036;28;1064;-68
2022/11/10 00:32:07;;;;;;;10.15;2.63;;;;;;;9.53;100.00;101008.03;689701;28;1155;-68
2022/11/10 00:32:47;;;;;;;9.55;2.30;;;;;;;9.49;100.00;101011.47;689255;28;1188;-68
2022/11/10 00:33:26;;;;;;;10.65;2.50;;;;;;;9.62;100.00;101003.72;687349;28;1160;-68
2022/11/10 00:34:06;;;;;;;9.05;2.88;;;;;;;9.62;100.00;101006.31;686527;28;5135;-68
2022/11/10 00:34:45;;;;;;;8.00;2.67;;;;;;;9.63;100.00;101008.06;687214;28;1190;-68
2022/11/10 00:35:24;;;;;;;8.82;2.85;;;;;;;9.80;100.00;101006.44;686894;28;1060;-68
2022/11/10 00:36:04;;;;;;;10.43;2.78;;;;;;;9.75;100.00;101008.13;686495;28;1274;-69
2022/11/10 00:36:43;;;;;;;10.23;3.20;;;;;;;9.63;100.00;101002.84;686790;28;4986;-68
2022/11/10 00:37:22;;;;;;;9.00;2.60;;;;;;;9.57;100.00;101006.31;686718;28;1119;-68
2022/11/10 00:38:00;;;;;;;8.52;2.78;;;;;;;9.57;100.00;101008.03;687492;28;1072;-69
2022/11/10 00:38:39;;;;;;;7.53;2.97;;;;;;;9.53;100.00;101005.41;687351;28;1175;-69
2022/11/10 00:39:18;;;;;;;8.75;2.85;;;;;;;9.50;100.00;101009.75;687376;28;1176;-69
2022/11/10 00:39:57;;;;;;;10.23;2.90;;;;;;;9.48;100.00;101007.13;686849;28;4986;-69
2022/11/10 00:40:36;;;;;;;8.15;2.40;;;;;;;9.46;100.00;101002.78;687594;28;1088;-68
2022/11/10 00:41:15;;;;;;;9.48;2.72;;;;;;;9.40;100.00;101006.22;687415;28;1064;-68
2022/11/10 00:41:54;;;;;;;8.95;2.55;;;;;;;9.44;100.00;101010.59;686705;28;1081;-69
2022/11/10 00:42:33;;;;;;;7.90;2.60;;;;;;;9.44;100.00;101009.72;687732;28;1017;-68
2022/11/10 00:43:12;;;;;;;8.10;2.55;;;;;;;9.46;100.00;101005.38;686891;28;5053;-70
2022/11/10 00:43:52;;;;;;;8.25;2.45;;;;;;;9.52;100.00;101008.88;687511;28;1111;-69
2022/11/10 00:44:31;;;;;;;9.73;2.70;;;;;;;9.54;100.00;101009.78;686866;28;1139;-68
2022/11/10 00:45:10;;;;;;;7.32;2.40;;;;;;;9.56;100.00;101019.38;684852;28;1139;-68
2022/11/10 00:45:50;;;;;;;8.85;2.53;;;;;;;9.60;100.00;101013.28;686994;28;4566;-68
2022/11/10 00:46:29;;;;;;;6.75;2.50;;;;;;;9.62;100.00;101015.03;686364;28;1197;-70
2022/11/10 00:47:08;;;;;;;8.10;2.40;;;;;;;9.53;100.00;101015.84;687193;28;1120;-68
2022/11/10 00:47:47;;;;;;;7.90;2.40;;;;;;;9.53;100.00;101021.06;687690;28;1150;-69
2022/11/10 00:48:26;;;;;;;10.27;3.00;;;;;;;9.53;100.00;101018.47;687297;28;960;-68
2022/11/10 00:49:05;;;;;;;9.60;3.33;;;;;;;9.45;100.00;101020.16;687594;28;5129;-68
2022/11/10 00:49:44;;;;;;;7.50;2.88;;;;;;;9.45;100.00;101021.91;686745;28;1205;-68
2022/11/10 00:50:23;;;;;;;9.73;2.88;;;;;;;9.54;100.00;101012.38;687351;28;1076;-68
2022/11/10 00:51:02;;;;;;;7.93;2.50;;;;;;;9.77;100.00;101019.44;687506;28;1190;-68
2022/11/10 00:51:41;;;;;;;8.38;2.70;;;;;;;9.76;100.00;101017.72;686952;28;4964;-68
2022/11/10 00:52:19;;;;;;;9.38;2.90;;;;;;;9.71;100.00;101022.03;687450;28;1151;-69
2022/11/10 00:52:58;;;;;;;9.32;3.00;;;;;;;9.60;100.00;101018.50;687676;28;1226;-68
2022/11/10 00:53:37;;;;;;;9.55;3.10;;;;;;;9.48;100.00;101017.56;687380;28;1037;-69
2022/11/10 00:54:16;;;;;;;8.10;2.67;;;;;;;9.38;100.00;101016.63;687436;28;1147;-69
2022/11/10 00:54:55;;;;;;;8.25;2.47;;;;;;;9.35;100.00;101026.19;686627;28;4987;-69
2022/11/10 00:55:37;;;;;;;8.15;2.88;;;;;;;9.42;100.00;101027.13;687412;28;1127;-69
2022/11/10 00:56:17;;;;;;;8.38;2.67;;;;;;;9.45;100.00;101030.59;687205;28;1139;-68
2022/11/10 00:56:56;;;;;;;7.75;2.40;;;;;;;9.30;100.00;101026.16;686551;28;1113;-69
2022/11/10 00:57:35;;;;;;;7.07;2.50;;;;;;;9.30;100.00;101027.91;687370;28;4557;-68
2022/11/10 00:58:14;;;;;;;8.60;2.80;;;;;;;9.25;100.00;101027.88;686980;28;1139;-68
2022/11/10 00:58:53;;;;;;;5.93;2.10;;;;;;;9.33;100.00;101038.34;687247;28;1099;-68
2022/11/10 00:59:31;;;;;;;7.07;2.50;;;;;;;9.36;100.00;101034.03;687551;28;1170;-69
2022/11/10 01:00:11;;;;;;;6.80;2.40;;;;;;;9.32;100.00;101034.88;687417;28;1068;-69
2022/11/10 01:00:50;;;;;;;7.43;2.67;;;;;;;9.25;100.00;101034.81;687267;28;4364;-69
2022/11/10 01:01:29;;;;;;;6.93;2.40;;;;;;;9.25;100.00;101040.94;686016;28;1116;-69
2022/11/10 01:02:08;;;;;;;10.32;2.67;;;;;;;9.19;100.00;101038.25;687248;28;1366;-69
2022/11/10 01:02:47;;;;;;;7.15;2.47;;;;;;;9.21;100.00;101033.94;687506;28;1926;-69
2022/11/10 01:03:26;;;;;;;6.72;2.58;;;;;;;9.22;100.00;101029.59;687347;28;1076;-68
2022/11/10 01:04:05;;;;;;;6.35;2.30;;;;;;;9.09;100.00;101039.06;687016;28;5124;-68
2022/11/10 01:04:44;;;;;;;7.82;2.55;;;;;;;9.09;100.00;101037.31;687286;28;1203;-68
2022/11/10 01:05:23;;;;;;;7.68;2.47;;;;;;;9.15;100.00;101033.88;687058;28;1076;-69
2022/11/10 01:06:07;;;;;;;6.38;2.38;;;;;;;9.15;100.00;101029.56;687607;28;1151;-68
2022/11/10 01:06:47;;;;;;;8.32;2.50;;;;;;;9.17;100.00;101032.16;687061;28;4447;-68
2022/11/10 01:07:26;;;;;;;8.95;2.40;;;;;;;9.17;100.00;101038.25;686998;28;1100;-68
2022/11/10 01:08:05;;;;;;;8.10;2.28;;;;;;;9.13;100.00;101036.47;687434;28;1132;-69
2022/11/10 01:08:44;;;;;;;9.93;2.40;;;;;;;9.08;100.00;101034.72;687118;28;1215;-68
2022/11/10 01:09:23;;;;;;;7.55;2.50;;;;;;;9.00;100.00;101030.31;687023;28;1077;-69
2022/11/10 01:10:02;;;;;;;8.35;2.40;;;;;;;8.96;100.00;101032.91;687129;28;5187;-68
2022/11/10 01:10:41;;;;;;;7.63;2.28;;;;;;;8.98;100.00;101025.94;687658;28;1299;-69
2022/11/10 01:11:26;;;;;;;8.68;2.30;;;;;;;8.96;100.00;101033.75;686799;28;1065;-68
2022/11/10 01:12:05;;;;;;;6.95;2.20;;;;;;;9.06;100.00;101032.09;687361;28;1189;-68
2022/11/10 01:12:44;;;;;;;10.10;2.78;;;;;;;9.03;100.00;101032.06;687026;28;4779;-68
2022/11/10 01:13:23;;;;;;;8.60;2.25;;;;;;;8.99;100.00;101038.13;686726;28;1052;-68
2022/11/10 01:14:02;;;;;;;7.50;2.03;;;;;;;9.00;100.00;101037.28;687448;28;1056;-69
2022/11/10 01:14:41;;;;;;;7.90;2.45;;;;;;;9.09;100.00;101039.06;687636;28;1104;-69
2022/11/10 01:15:20;;;;;;;8.45;2.40;;;;;;;8.95;100.00;101036.34;686621;28;2019;-69
2022/11/10 01:16:27;;;;;;;8.02;2.38;;;;;;;8.98;100.00;101031.16;687236;28;5964;-69
2022/11/10 01:17:06;;;;;;;7.55;2.50;;;;;;;9.00;100.00;101035.53;687594;28;1120;-69
2022/11/10 01:17:45;;;;;;;7.90;2.55;;;;;;;8.92;100.00;101031.13;686835;28;1343;-69
2022/11/10 01:18:24;;;;;;;9.40;2.58;;;;;;;8.92;100.00;101044.16;687556;28;1072;-69
2022/11/10 01:19:03;;;;;;;8.70;2.60;;;;;;;8.94;100.00;101039.81;686159;28;5174;-69
2022/11/10 01:19:43;;;;;;;9.00;2.60;;;;;;;8.95;100.00;101042.44;686976;28;1105;-68
2022/11/10 01:20:23;;;;;;;8.43;2.50;;;;;;;8.87;100.00;101044.09;689760;28;1091;-68
2022/11/10 01:21:03;;;;;;;7.63;2.35;;;;;;;8.85;100.00;101038.88;689901;28;1128;-69
2022/11/10 01:21:42;;;;;;;6.18;2.53;;;;;;;8.82;100.00;101046.69;688947;28;4526;-68
2022/11/10 01:22:21;;;;;;;7.53;2.38;;;;;;;8.83;100.00;101043.22;687117;28;1230;-69
2022/11/10 01:23:00;;;;;;;7.50;2.45;;;;;;;8.85;100.00;101046.69;684431;28;2001;-68
2022/11/10 01:23:39;;;;;;;6.50;2.20;;;;;;;8.91;100.00;101050.22;684341;28;1164;-69
2022/11/10 01:24:20;;;;;;;8.93;2.50;;;;;;;8.89;100.00;101049.31;687137;28;1103;-68
2022/11/10 01:24:59;;;;;;;7.82;2.42;;;;;;;8.81;100.00;101044.06;686999;28;4985;-69
2022/11/10 01:25:38;;;;;;;7.30;2.30;;;;;;;8.87;100.00;101054.53;687698;28;961;-68
2022/11/10 01:26:18;;;;;;;8.23;2.28;;;;;;;8.79;100.00;101053.59;686741;28;1064;-68
2022/11/10 01:26:57;;;;;;;6.55;2.50;;;;;;;8.86;100.00;101051.06;687052;28;1044;-69
2022/11/10 01:27:36;;;;;;;7.85;2.28;;;;;;;8.76;100.00;101051.81;686793;28;4410;-68
2022/11/10 01:28:15;;;;;;;9.10;2.42;;;;;;;8.73;100.00;101050.94;686756;28;1055;-68
2022/11/10 01:28:54;;;;;;;8.48;2.22;;;;;;;8.77;100.00;101053.59;687461;28;1139;-69
2022/11/10 01:29:33;;;;;;;8.07;2.28;;;;;;;8.69;100.00;101060.44;686482;28;1321;-69
2022/11/10 01:30:12;;;;;;;7.53;2.40;;;;;;;8.68;100.00;101048.28;687047;28;1411;-68
2022/11/10 01:31:12;;;;;;;7.32;2.20;;;;;;;8.80;100.00;101051.00;686959;28;4376;-69
2022/11/10 01:31:51;;;;;;;7.10;2.17;;;;;;;8.85;100.00;101059.75;687375;28;1040;-68
2022/11/10 01:32:30;;;;;;;7.32;2.10;;;;;;;8.81;100.00;101051.88;687073;28;1083;-68
2022/11/10 01:33:09;;;;;;;7.75;2.80;;;;;;;8.70;100.00;101054.38;687245;28;1214;-68
2022/11/10 01:33:48;;;;;;;8.25;2.20;;;;;;;8.67;100.00;101056.97;686830;28;4542;-68
2022/11/10 01:34:27;;;;;;;7.25;2.50;;;;;;;8.66;100.00;101053.47;687144;28;1282;-69
2022/11/10 01:35:07;;;;;;;8.13;2.33;;;;;;;8.71;100.00;101045.72;687547;28;1203;-68
2022/11/10 01:35:46;;;;;;;6.30;1.88;;;;;;;8.79;100.00;101048.38;687206;28;1278;-68
2022/11/10 01:36:25;;;;;;;7.97;2.30;;;;;;;8.82;100.00;101049.28;686755;28;1103;-68
2022/11/10 01:37:04;;;;;;;7.95;2.10;;;;;;;8.64;100.00;101052.59;687198;28;5015;-69
2022/11/10 01:37:44;;;;;;;7.85;2.10;;;;;;;8.64;100.00;101051.72;687561;28;1152;-68
2022/11/10 01:38:27;;;;;;;7.70;2.25;;;;;;;8.56;100.00;101054.25;687011;28;1396;-69
2022/11/10 01:39:06;;;;;;;6.60;1.98;;;;;;;8.61;100.00;101062.13;687533;28;1176;-69
2022/11/10 01:39:47;;;;;;;6.45;2.15;;;;;;;8.54;100.00;101055.09;687142;28;4303;-69
2022/11/10 01:40:26;;;;;;;8.13;2.28;;;;;;;8.49;100.00;101055.94;687162;28;1111;-68
2022/11/10 01:41:08;;;;;;;6.53;2.20;;;;;;;8.63;100.00;101063.03;687592;28;1188;-69
2022/11/10 01:41:47;;;;;;;7.43;2.10;;;;;;;8.63;100.00;101063.03;687844;28;985;-68
2022/11/10 01:42:56;;;;;;;6.95;2.10;;;;;;;8.46;100.00;101061.13;687142;28;1146;-69
2022/11/10 01:43:36;;;;;;;6.40;2.20;;;;;;;8.49;100.00;101065.50;686705;28;5123;-68
2022/11/10 01:44:21;;;;;;;6.28;1.90;;;;;;;8.55;100.00;101067.28;687212;28;1099;-69
2022/11/10 01:45:18;;;;;;;6.45;1.92;;;;;;;8.57;100.00;101065.53;687616;28;1184;-68
2022/11/10 01:46:03;;;;;;;7.95;2.17;;;;;;;8.59;100.00;101063.84;686919;28;1190;-68
2022/11/10 01:46:42;;;;;;;7.07;2.30;;;;;;;8.53;100.00;101067.28;686840;28;1175;-68
2022/11/10 01:47:20;;;;;;;7.03;1.95;;;;;;;8.54;100.00;101070.72;687360;28;1260;-68
2022/11/10 01:48:04;;;;;;;7.10;2.20;;;;;;;8.58;100.00;101070.78;687430;28;1132;-68
2022/11/10 01:48:51;;;;;;;8.57;1.90;;;;;;;8.52;100.00;101070.72;686529;28;4441;-69
2022/11/10 01:49:32;;;;;;;8.43;2.00;;;;;;;8.46;100.00;101068.03;687371;28;1245;-69
2022/11/10 01:50:11;;;;;;;8.90;2.30;;;;;;;8.43;100.00;101068.88;687134;28;1067;-69
2022/11/10 01:50:50;;;;;;;6.18;2.33;;;;;;;8.48;100.00;101063.72;687302;28;1231;-68
2022/11/10 01:51:50;;;;;;;7.43;2.22;;;;;;;8.38;100.00;101070.53;687180;28;1143;-68
2022/11/10 01:52:32;;;;;;;7.35;1.83;;;;;;;8.29;100.00;101065.22;687523;28;4960;-68
2022/11/10 01:53:19;;;;;;;6.68;2.10;;;;;;;8.35;100.00;101065.31;688555;28;1163;-68
2022/11/10 01:54:05;;;;;;;8.73;2.30;;;;;;;8.43;100.00;101067.97;685364;28;1120;-69
2022/11/10 01:54:47;;;;;;;7.30;1.90;;;;;;;8.35;100.00;101070.53;686382;28;1139;-69
2022/11/10 01:55:27;;;;;;;6.57;2.03;;;;;;;8.18;100.00;101066.00;685514;28;1100;-69
2022/11/10 01:56:09;;;;;;;8.07;2.20;;;;;;;8.07;100.00;101074.53;685497;28;1219;-68
2022/11/10 01:56:52;;;;;;;5.38;1.98;;;;;;;8.21;100.00;101069.47;687352;28;1027;-68
2022/11/10 01:57:32;;;;;;;6.20;1.85;;;;;;;8.16;100.00;101070.28;686730;28;1139;-69
2022/11/10 01:58:13;;;;;;;7.35;2.08;;;;;;;8.23;100.00;101073.84;686759;28;5007;-68
2022/11/10 01:58:57;;;;;;;6.72;2.30;;;;;;;8.17;100.00;101065.97;687242;28;1219;-69
2022/11/10 01:59:44;;;;;;;6.97;2.10;;;;;;;8.12;100.00;101065.91;686851;28;1319;-69
2022/11/10 02:00:23;;;;;;;7.95;2.00;;;;;;;8.27;100.00;101078.25;686821;28;1107;-68
2022/11/10 02:01:02;;;;;;;6.90;2.00;;;;;;;8.20;100.00;101076.44;686151;28;6193;-69
2022/11/10 02:01:41;;;;;;;6.10;1.83;;;;;;;8.18;100.00;101073.81;686931;28;1183;-68
2022/11/10 02:02:26;;;;;;;5.85;2.00;;;;;;;8.15;100.00;101078.97;687010;28;1051;-68
2022/11/10 02:03:29;;;;;;;7.50;2.00;;;;;;;8.29;100.00;101076.53;687241;28;1140;-69
2022/11/10 02:04:13;;;;;;;7.88;2.20;;;;;;;8.24;100.00;101079.91;689196;28;5022;-68
2022/11/10 02:04:53;;;;;;;7.90;2.17;;;;;;;8.32;100.00;101078.28;689776;28;1207;-69
2022/11/10 02:05:33;;;;;;;7.95;2.20;;;;;;;8.24;100.00;101088.63;686840;28;1135;-68
2022/11/10 02:06:13;;;;;;;8.05;2.35;;;;;;;8.21;100.00;101079.88;686943;28;1211;-69
2022/11/10 02:06:52;;;;;;;6.28;2.03;;;;;;;8.23;100.00;101083.41;686893;28;4345;-68
2022/11/10 02:07:32;;;;;;;7.90;2.20;;;;;;;8.11;100.00;101085.00;687017;28;1303;-69
2022/11/10 02:08:14;;;;;;;8.23;2.40;;;;;;;8.21;100.00;101085.09;689769;28;1155;-68
2022/11/10 02:08:55;;;;;;;5.90;2.10;;;;;;;8.16;100.00;101091.13;688675;28;1235;-68
2022/11/10 02:09:35;;;;;;;9.35;2.33;;;;;;;8.20;100.00;101089.44;689280;28;1313;-68
2022/11/10 02:10:17;;;;;;;8.38;2.05;;;;;;;8.19;100.00;101091.16;687277;28;4967;-69
2022/11/10 02:10:56;;;;;;;7.63;2.28;;;;;;;8.19;100.00;101093.75;686414;28;1156;-69
2022/11/10 02:11:37;;;;;;;8.18;2.30;;;;;;;8.19;100.00;101091.16;686624;28;1229;-68
2022/11/10 02:12:35;;;;;;;6.60;2.10;;;;;;;8.21;100.00;101087.69;685563;28;1183;-69
2022/11/10 02:13:14;;;;;;;7.97;2.47;;;;;;;8.26;100.00;101091.25;684213;28;5153;-68
2022/11/10 02:13:53;;;;;;;6.97;2.20;;;;;;;8.26;100.00;101092.09;684117;28;1223;-68
2022/11/10 02:14:32;;;;;;;7.53;2.30;;;;;;;8.21;100.00;101092.91;684702;28;1236;-68
2022/11/10 02:15:14;;;;;;;9.45;2.50;;;;;;;8.16;100.00;101091.13;684226;28;1379;-69
2022/11/10 02:15:53;;;;;;;8.35;2.40;;;;;;;8.13;100.00;101092.84;685699;28;4540;-68
2022/11/10 02:16:33;;;;;;;8.63;2.50;;;;;;;8.23;100.00;101091.22;688778;28;1171;-69
2022/11/10 02:17:12;;;;;;;5.95;2.22;;;;;;;8.34;100.00;101095.69;689778;28;1099;-68
2022/11/10 02:17:51;;;;;;;7.45;2.70;;;;;;;8.35;100.00;101097.44;687251;28;1210;-69
2022/11/10 02:18:31;;;;;;;8.13;2.03;;;;;;;8.19;100.00;101096.38;687202;28;1258;-69
2022/11/10 02:19:19;;;;;;;7.85;2.30;;;;;;;8.23;100.00;101096.44;686631;28;4997;-68
2022/11/10 02:20:03;;;;;;;7.97;2.22;;;;;;;8.21;100.00;101092.91;687603;28;989;-69
2022/11/10 02:20:43;;;;;;;7.88;2.30;;;;;;;8.12;100.00;101098.91;686712;28;1184;-68
2022/11/10 02:21:22;;;;;;;8.48;2.25;;;;;;;8.19;100.00;101101.56;687204;28;953;-68
2022/11/10 02:22:01;;;;;;;8.45;2.17;;;;;;;8.18;100.00;101101.56;686705;28;4963;-68
2022/11/10 02:22:40;;;;;;;8.10;2.15;;;;;;;8.15;100.00;101099.78;687614;28;1179;-69
2022/11/10 02:23:28;;;;;;;7.97;2.20;;;;;;;8.11;100.00;101104.94;687210;28;1088;-68
2022/11/10 02:24:07;;;;;;;7.63;2.10;;;;;;;8.13;100.00;101108.47;687218;28;1348;-68
2022/11/10 02:24:46;;;;;;;8.50;1.90;;;;;;;8.14;100.00;101098.06;686779;28;4397;-69
2022/11/10 02:25:31;;;;;;;8.50;2.25;;;;;;;8.21;100.00;101109.44;687059;28;1040;-69
2022/11/10 02:26:10;;;;;;;7.68;2.47;;;;;;;8.25;100.00;101099.91;687091;28;1230;-68
2022/11/10 02:26:53;;;;;;;8.43;2.17;;;;;;;8.23;100.00;101101.63;687516;28;1330;-69
2022/11/10 02:27:32;;;;;;;6.22;2.00;;;;;;;8.18;100.00;101110.28;687373;28;1258;-68
2022/11/10 02:28:11;;;;;;;7.40;2.20;;;;;;;8.24;100.00;101106.88;686837;28;5159;-68
2022/11/10 02:28:50;;;;;;;9.15;2.30;;;;;;;8.24;100.00;101111.19;687277;28;1171;-69
2022/11/10 02:29:29;;;;;;;6.60;2.17;;;;;;;8.18;100.00;101107.66;687453;28;934;-69
2022/11/10 02:30:08;;;;;;;5.07;2.03;;;;;;;8.14;100.00;101105.88;687255;28;1263;-69
2022/11/10 02:30:48;;;;;;;7.35;2.17;;;;;;;8.13;100.00;101109.31;686483;28;4771;-69
2022/11/10 02:31:27;;;;;;;7.07;2.10;;;;;;;8.10;100.00;101104.09;687567;28;1211;-69
2022/11/10 02:32:06;;;;;;;8.43;2.05;;;;;;;8.23;100.00;101107.72;686935;28;1274;-68
2022/11/10 02:32:45;;;;;;;7.88;2.17;;;;;;;8.32;100.00;101107.81;686434;28;1204;-69
2022/11/10 02:33:24;;;;;;;8.32;2.10;;;;;;;8.24;100.00;101106.88;687040;28;1096;-69
2022/11/10 02:34:03;;;;;;;7.40;2.08;;;;;;;8.23;100.00;101112.06;686616;28;5010;-68
2022/11/10 02:34:42;;;;;;;8.32;2.05;;;;;;;8.27;100.00;101113.84;686938;28;1112;-68
2022/11/10 02:35:21;;;;;;;7.78;1.92;;;;;;;8.23;100.00;101112.06;687345;28;1127;-69
2022/11/10 02:36:00;;;;;;;5.97;2.25;;;;;;;8.21;100.00;101114.66;687559;28;1143;-69
2022/11/10 02:36:39;;;;;;;5.72;1.85;;;;;;;8.27;100.00;101114.69;686301;28;4429;-69
2022/11/10 02:37:20;;;;;;;8.10;2.25;;;;;;;8.22;100.00;101115.50;687010;28;1119;-68
2022/11/10 02:38:00;;;;;;;9.38;2.22;;;;;;;8.16;100.00;101114.56;687347;28;1404;-68
2022/11/10 02:38:39;;;;;;;8.05;2.20;;;;;;;8.16;100.00;101117.16;689162;28;1199;-69
2022/11/10 02:39:18;;;;;;;7.28;2.25;;;;;;;8.16;100.00;101111.97;688836;28;1139;-69
2022/11/10 02:39:57;;;;;;;8.38;2.22;;;;;;;8.15;100.00;101107.59;687086;28;4997;-68
2022/11/10 02:40:36;;;;;;;6.28;2.00;;;;;;;8.19;100.00;101109.38;687348;28;1229;-69
2022/11/10 02:41:15;;;;;;;6.72;2.10;;;;;;;8.32;100.00;101113.03;685885;28;1131;-68
2022/11/10 02:41:54;;;;;;;6.32;2.00;;;;;;;8.29;100.00;101112.13;685934;28;1219;-69
2022/11/10 02:42:33;;;;;;;7.90;2.22;;;;;;;8.21;100.00;101108.53;686928;28;1164;-69
2022/11/10 02:43:14;;;;;;;6.16;2.04;;;;;;;8.12;100.00;101112.78;685389;28;5079;-70
2022/11/10 02:43:55;;;;;;;7.95;2.05;;;;;;;8.15;100.00;101114.56;686902;28;1322;-69
2022/11/10 02:44:34;;;;;;;7.22;2.00;;;;;;;8.14;100.00;101118.91;686897;28;1265;-69
2022/11/10 02:45:13;;;;;;;8.05;2.10;;;;;;;8.18;100.00;101119.78;686828;28;1150;-69
2022/11/10 02:45:52;;;;;;;7.60;2.40;;;;;;;8.15;100.00;101115.41;686461;28;4381;-69
2022/11/10 02:46:31;;;;;;;8.50;2.15;;;;;;;8.12;100.00;101117.13;687521;28;1152;-69
2022/11/10 02:47:10;;;;;;;6.28;2.00;;;;;;;8.25;100.00;101115.53;687067;28;1211;-68
2022/11/10 02:47:50;;;;;;;6.00;1.88;;;;;;;8.19;100.00;101111.13;687450;28;1151;-69
2022/11/10 02:48:29;;;;;;;8.25;2.30;;;;;;;8.14;100.00;101118.91;687284;28;1099;-68
2022/11/10 02:49:08;;;;;;;7.15;2.10;;;;;;;8.03;100.00;101115.28;686826;28;5140;-68
2022/11/10 02:49:47;;;;;;;6.90;2.03;;;;;;;8.00;100.00;101110.03;687254;28;1307;-69
2022/11/10 02:50:26;;;;;;;6.68;1.90;;;;;;;8.10;100.00;101116.22;687117;28;1134;-68
2022/11/10 02:51:05;;;;;;;7.60;2.05;;;;;;;8.15;100.00;101124.97;687575;28;1119;-69
2022/11/10 02:51:44;;;;;;;8.00;2.05;;;;;;;8.06;100.00;101120.53;686243;28;4350;-69
2022/11/10 02:52:23;;;;;;;9.02;2.20;;;;;;;8.06;100.00;101120.53;686764;28;1108;-69
2022/11/10 02:53:03;;;;;;;8.18;3.28;;;;;;;8.21;100.00;101124.16;684630;28;1149;-69
2022/11/10 02:53:42;;;;;;;7.15;2.10;;;;;;;8.14;100.00;101126.72;686823;28;1179;-69
2022/11/10 02:54:21;;;;;;;8.38;2.03;;;;;;;8.10;100.00;101117.09;686838;28;1148;-68
2022/11/10 02:55:00;;;;;;;9.32;2.30;;;;;;;7.99;100.00;101121.31;688596;28;5150;-68
2022/11/10 02:55:39;;;;;;;7.95;2.20;;;;;;;7.97;100.00;101126.47;688993;28;1166;-69
2022/11/10 02:56:18;;;;;;;7.90;2.05;;;;;;;8.07;100.00;101124.00;686970;28;1119;-69
2022/11/10 02:56:57;;;;;;;6.95;2.10;;;;;;;8.13;100.00;101122.34;687452;28;1132;-69
2022/11/10 02:57:36;;;;;;;7.30;2.03;;;;;;;8.12;100.00;101122.34;686663;28;4536;-68
2022/11/10 02:58:15;;;;;;;7.25;1.80;;;;;;;8.16;100.00;101117.16;686306;28;1064;-69
2022/11/10 02:58:54;;;;;;;8.40;2.28;;;;;;;8.09;100.00;101117.09;687242;28;1120;-68
2022/11/10 02:59:33;;;;;;;6.88;2.03;;;;;;;8.18;100.00;101118.09;687154;28;1198;-68
2022/11/10 03:00:12;;;;;;;7.05;2.10;;;;;;;8.19;100.00;101116.34;686656;28;1100;-69
2022/11/10 03:00:51;;;;;;;7.82;2.40;;;;;;;8.14;100.00;101113.69;686577;28;5475;-68
2022/11/10 03:01:30;;;;;;;6.90;2.10;;;;;;;8.16;100.00;101117.16;687099;28;1096;-68
2022/11/10 03:02:09;;;;;;;7.65;2.10;;;;;;;8.13;100.00;101119.75;687064;28;1112;-69
2022/11/10 03:02:48;;;;;;;7.50;2.20;;;;;;;8.13;100.00;101121.50;689718;28;1968;-69
2022/11/10 03:03:27;;;;;;;6.32;1.92;;;;;;;8.15;100.00;101120.63;689672;28;1286;-69
2022/11/10 03:04:06;;;;;;;7.57;2.20;;;;;;;8.23;100.00;101118.13;689135;28;4989;-69
2022/11/10 03:04:45;;;;;;;5.93;2.10;;;;;;;8.16;100.00;101119.78;687381;28;1336;-69
2022/11/10 03:05:24;;;;;;;8.73;2.22;;;;;;;8.15;100.00;101120.63;686715;28;1021;-68
2022/11/10 03:06:03;;;;;;;8.75;2.40;;;;;;;8.27;100.00;101127.72;687021;28;1088;-69
2022/11/10 03:06:42;;;;;;;8.35;2.17;;;;;;;8.24;100.00;101134.63;686328;28;4479;-68
2022/11/10 03:07:21;;;;;;;6.85;2.15;;;;;;;8.16;100.00;101131.94;686858;28;1045;-68
2022/11/10 03:08:01;;;;;;;7.10;2.20;;;;;;;8.10;100.00;101131.84;686862;28;1215;-69
2022/11/10 03:08:40;;;;;;;9.90;2.40;;;;;;;8.08;100.00;101129.22;687184;28;1139;-68
2022/11/10 03:09:19;;;;;;;8.23;2.45;;;;;;;8.13;100.00;101132.78;686965;28;1032;-69
2022/11/10 03:09:58;;;;;;;8.45;2.40;;;;;;;8.22;100.00;101139.81;686717;28;5113;-69
2022/11/10 03:10:37;;;;;;;9.25;2.00;;;;;;;8.19;100.00;101137.19;687270;28;1180;-69
2022/11/10 03:11:16;;;;;;;7.60;2.13;;;;;;;8.11;100.00;101139.69;686302;28;1060;-69
2022/11/10 03:11:55;;;;;;;7.82;2.00;;;;;;;8.11;100.00;101144.91;686122;28;1172;-68
2022/11/10 03:12:34;;;;;;;6.68;2.22;;;;;;;8.11;100.00;101144.00;687396;28;1267;-68
2022/11/10 03:13:13;;;;;;;8.27;2.15;;;;;;;8.09;100.00;101145.75;686520;28;4988;-68
2022/11/10 03:13:52;;;;;;;6.93;2.00;;;;;;;8.09;100.00;101149.19;686179;28;1222;-69
2022/11/10 03:14:31;;;;;;;6.22;2.05;;;;;;;8.03;100.00;101146.53;686862;28;1180;-69
2022/11/10 03:15:11;;;;;;;8.20;2.20;;;;;;;7.98;100.00;101148.19;686259;28;1948;-68
2022/11/10 03:15:50;;;;;;;9.00;2.20;;;;;;;7.94;100.00;101146.41;686954;28;4557;-69